Chippewa Valley Regional Airport

Airport
ICAO code: 
KEAU
Summary
ICAO Region: 
NAM
Territory: 
Location: 
Eau Claire, Wisconsin,
Elevation: 
913 ft
Coordinates: 
Aerial View: 
44° 51' 46.752" N, 91° 28' 46.156" W
Airport CFIT: 
Altimeter Temperature Error Correction
Airport RE: 
Landing on Contaminated Runways
Metar
Observation
KEAU 040656Z AUTO 27007KT 10SM CLR M02/M06 A3019 RMK AO2 SLP234 T10171061
Station
Eau Claire, Chippewa Valley Regional Airport
Date/Time
2021-12-04 06:56:00
Wind direction
270°
Wind speed
07 kts
Lowest cloud amount
n/a
Temperature
-1.7°C
Dew point
-6.1°C
Humidity
71%
Weather condition
n/a

Description

Chippewa Valley Regional Airport is a public use airport located 6 km north of the central business district of the city of Eau Claire, in Chippewa County, Wisconsin.

Climatology

Humid continental climate (Köppen climate classification Dfa) - characterized by four seasons: cold, windy, snowy winters, mild springs, hot, humid summers, and crisp and relatively short autumns. Precipitation reaches its lowest in January and February and peaks in summer and latter half of spring.

Runways

Designator Length Width Surface Rops
14/32 1524 30 CON Yes/Yes
4/22 2469 46 CON Yes/Yes
Airport map: 
Aerial View: 

SKYbrary Partners:

Safety knowledge contributed by: